Time;durP1;ratioP1;P1;durP2;ratioP2;P2;SDS_P1;SDS_P2;PMS_P1;PMS_P2;Temp;Humidity;BMP_temperature;BMP_pressure;BME280_temperature;BME280_humidity;BME280_pressure;Samples;Min_cycle;Max_cycle;Signal;HPM_P1;HPM_P2
2023/12/31 00:01:45;;;;;;;2.75;1.35;;;8.50;99.90;;;;;;5011902;28;20356;-34
2023/12/31 00:04:11;;;;;;;3.80;1.23;;;8.50;99.90;;;;;;5024162;28;20514;-35
2023/12/31 00:06:36;;;;;;;2.80;1.30;;;8.40;99.90;;;;;;5008210;28;20064;-35
2023/12/31 00:09:02;;;;;;;6.03;1.20;;;8.30;99.90;;;;;;5023486;28;20080;-34
2023/12/31 00:11:28;;;;;;;4.30;1.48;;;8.20;99.90;;;;;;5019709;28;20399;-35
2023/12/31 00:13:53;;;;;;;3.17;1.20;;;8.20;99.90;;;;;;5007146;28;20056;-35
2023/12/31 00:16:20;;;;;;;5.03;1.42;;;8.20;99.90;;;;;;5023474;28;20533;-35
2023/12/31 00:18:45;;;;;;;2.17;1.10;;;8.10;99.90;;;;;;5019511;28;20053;-34
2023/12/31 00:21:11;;;;;;;3.15;1.38;;;8.10;99.90;;;;;;5015583;28;20547;-34
2023/12/31 00:23:38;;;;;;;3.80;1.33;;;8.10;99.90;;;;;;5003338;28;20084;-34
2023/12/31 00:26:04;;;;;;;3.20;1.30;;;8.00;99.90;;;;;;5022342;28;20135;-34
2023/12/31 00:28:29;;;;;;;4.35;1.52;;;8.00;99.90;;;;;;5008270;28;20052;-34
2023/12/31 00:30:55;;;;;;;3.00;1.10;;;8.00;99.90;;;;;;5022185;28;20057;-34
2023/12/31 00:33:21;;;;;;;4.25;1.10;;;8.10;99.90;;;;;;5024503;28;20053;-34
2023/12/31 00:35:47;;;;;;;2.83;1.15;;;8.00;99.90;;;;;;5024095;28;20396;-34
2023/12/31 00:38:13;;;;;;;3.13;1.20;;;8.10;99.90;;;;;;5021605;28;20037;-35
2023/12/31 00:40:39;;;;;;;3.42;1.58;;;8.10;99.90;;;;;;5023608;28;20053;-34
2023/12/31 00:43:04;;;;;;;4.10;1.10;;;8.10;99.90;;;;;;5019970;28;20058;-35
2023/12/31 00:45:30;;;;;;;3.92;1.20;;;8.10;99.90;;;;;;5022943;28;20055;-41
2023/12/31 00:47:56;;;;;;;4.00;1.17;;;8.10;99.90;;;;;;5019498;28;20053;-35
2023/12/31 00:50:21;;;;;;;3.00;1.30;;;8.10;99.90;;;;;;5021935;28;20418;-35
2023/12/31 00:52:47;;;;;;;3.42;1.05;;;8.10;99.90;;;;;;5022769;28;20056;-39
2023/12/31 00:55:13;;;;;;;3.03;1.20;;;8.10;99.90;;;;;;5024274;28;20045;-34
2023/12/31 00:57:39;;;;;;;4.13;1.00;;;8.10;99.90;;;;;;5023740;28;20049;-34
2023/12/31 01:00:05;;;;;;;3.53;1.00;;;8.10;99.90;;;;;;5018606;28;20068;-34
2023/12/31 01:02:31;;;;;;;3.50;1.05;;;8.10;99.90;;;;;;4993491;28;20396;-34
2023/12/31 01:04:57;;;;;;;2.10;1.00;;;8.00;99.90;;;;;;5020421;28;20048;-35
2023/12/31 01:07:23;;;;;;;2.72;1.00;;;8.00;99.90;;;;;;5019513;28;20050;-36
2023/12/31 01:09:48;;;;;;;2.15;0.98;;;8.00;99.90;;;;;;5028273;28;20106;-35
2023/12/31 01:12:14;;;;;;;3.38;1.45;;;8.00;99.90;;;;;;5025060;28;20129;-34
2023/12/31 01:14:41;;;;;;;3.38;1.00;;;7.90;99.90;;;;;;5024235;28;20410;-34
2023/12/31 01:17:08;;;;;;;3.15;1.30;;;7.90;99.90;;;;;;5021243;28;20128;-34
2023/12/31 01:19:35;;;;;;;2.05;1.00;;;7.90;99.90;;;;;;5024168;28;20075;-34
2023/12/31 01:22:00;;;;;;;2.10;1.00;;;7.90;99.90;;;;;;5017053;28;20042;-35
2023/12/31 01:24:26;;;;;;;2.35;1.00;;;7.90;99.90;;;;;;5023875;28;20049;-35
2023/12/31 01:26:52;;;;;;;1.95;1.02;;;7.90;99.90;;;;;;5025040;28;20118;-35
2023/12/31 01:29:18;;;;;;;2.15;0.95;;;8.00;99.90;;;;;;5023945;28;20135;-35
2023/12/31 01:31:43;;;;;;;2.33;0.80;;;8.00;99.90;;;;;;5008090;28;20574;-35
2023/12/31 01:34:09;;;;;;;2.40;0.90;;;8.00;99.90;;;;;;5022354;28;20060;-34
2023/12/31 01:36:35;;;;;;;1.35;0.63;;;8.00;99.90;;;;;;5020507;28;20053;-35
2023/12/31 01:39:00;;;;;;;4.60;0.75;;;8.00;99.90;;;;;;5014658;28;20156;-34
2023/12/31 01:41:26;;;;;;;2.30;0.70;;;8.00;99.90;;;;;;5022651;28;20458;-35
2023/12/31 01:44:03;;;;;;;2.28;0.80;;;8.00;99.90;;;;;;5021640;28;20057;-35
2023/12/31 01:46:31;;;;;;;2.25;0.88;;;8.00;99.90;;;;;;5022246;28;20060;-34
2023/12/31 01:48:57;;;;;;;3.65;1.10;;;8.00;99.90;;;;;;5004400;28;20119;-35
2023/12/31 01:51:25;;;;;;;1.40;0.70;;;8.00;99.90;;;;;;4985060;28;20077;-35
2023/12/31 01:53:51;;;;;;;2.20;0.88;;;8.00;99.90;;;;;;5020496;28;20134;-34
2023/12/31 01:56:19;;;;;;;2.85;0.80;;;8.00;99.90;;;;;;5022529;28;20045;-34
2023/12/31 01:58:46;;;;;;;2.15;0.70;;;8.00;99.90;;;;;;5023256;28;20521;-34
2023/12/31 02:01:13;;;;;;;2.08;0.70;;;8.00;99.90;;;;;;5024768;28;20446;-35
2023/12/31 02:03:39;;;;;;;2.05;0.70;;;7.90;99.90;;;;;;5025958;28;20065;-35
2023/12/31 02:06:04;;;;;;;2.67;1.08;;;7.90;99.90;;;;;;5028829;28;20188;-35
2023/12/31 02:08:30;;;;;;;3.67;0.80;;;7.90;99.90;;;;;;5020648;28;20057;-35
2023/12/31 02:10:56;;;;;;;2.08;0.63;;;7.90;99.90;;;;;;5006312;28;20148;-36
2023/12/31 02:13:22;;;;;;;1.52;0.60;;;7.90;99.90;;;;;;5006894;28;20267;-34
2023/12/31 02:15:47;;;;;;;3.13;0.63;;;7.90;99.90;;;;;;5006709;28;20102;-34
2023/12/31 02:18:13;;;;;;;2.17;0.63;;;7.90;99.90;;;;;;5006310;28;20140;-34
2023/12/31 02:20:39;;;;;;;1.33;0.50;;;7.90;99.90;;;;;;5006950;28;20053;-35
2023/12/31 02:23:05;;;;;;;1.77;0.60;;;7.90;99.90;;;;;;5021557;28;20482;-36
2023/12/31 02:25:37;;;;;;;2.58;0.90;;;7.90;99.90;;;;;;5013187;28;20557;-39
2023/12/31 02:28:03;;;;;;;4.30;0.70;;;7.90;99.90;;;;;;5000890;28;20491;-34
2023/12/31 02:30:28;;;;;;;2.45;0.80;;;7.90;99.90;;;;;;5017226;28;20129;-35
2023/12/31 02:32:54;;;;;;;1.98;0.57;;;7.90;99.90;;;;;;5017411;28;20059;-34
2023/12/31 02:35:20;;;;;;;1.75;0.85;;;7.90;99.90;;;;;;5017437;28;20050;-34
2023/12/31 02:37:45;;;;;;;1.70;0.60;;;7.90;99.90;;;;;;5027433;28;20136;-34
2023/12/31 02:40:11;;;;;;;1.80;0.52;;;7.90;99.90;;;;;;5013939;28;20517;-34
2023/12/31 02:42:37;;;;;;;2.65;0.85;;;7.90;99.90;;;;;;5029010;28;20140;-35
2023/12/31 02:45:03;;;;;;;2.22;0.50;;;7.90;99.90;;;;;;5008660;28;20124;-35
2023/12/31 02:47:29;;;;;;;3.10;0.65;;;8.00;99.90;;;;;;5010361;28;20056;-34
2023/12/31 02:49:54;;;;;;;2.17;0.50;;;7.90;99.90;;;;;;5005048;28;20049;-38
2023/12/31 02:52:20;;;;;;;1.77;0.70;;;7.90;99.90;;;;;;5008131;28;20054;-35
2023/12/31 02:54:46;;;;;;;2.50;0.90;;;8.00;99.90;;;;;;4990830;28;20136;-35
2023/12/31 02:57:12;;;;;;;2.13;0.80;;;7.90;99.90;;;;;;5005040;28;20072;-36
2023/12/31 02:59:38;;;;;;;1.73;0.70;;;7.90;99.90;;;;;;5004788;28;20042;-34
2023/12/31 03:02:04;;;;;;;2.15;0.75;;;7.90;99.90;;;;;;5015965;28;20708;-34
2023/12/31 03:04:30;;;;;;;3.03;0.70;;;8.00;99.90;;;;;;5027860;28;20567;-34
2023/12/31 03:06:55;;;;;;;2.03;0.70;;;8.00;99.90;;;;;;5026921;28;20136;-34
2023/12/31 03:09:21;;;;;;;1.83;0.70;;;8.00;99.90;;;;;;5023421;28;20049;-35
2023/12/31 03:11:48;;;;;;;1.30;0.70;;;7.90;99.90;;;;;;5026091;28;20046;-41
2023/12/31 03:14:14;;;;;;;2.40;0.80;;;8.00;99.90;;;;;;5022252;28;20116;-36
2023/12/31 03:16:46;;;;;;;2.53;1.00;;;8.00;99.90;;;;;;5005345;28;20050;-34
2023/12/31 03:19:15;;;;;;;;;;;8.00;99.90;;;;;;5020194;28;20042;-34
2023/12/31 03:21:42;;;;;;;2.67;1.00;;;8.00;99.90;;;;;;5012377;28;20306;-34
2023/12/31 03:24:08;;;;;;;2.25;0.80;;;8.00;99.90;;;;;;4995032;28;20509;-34
2023/12/31 03:26:34;;;;;;;2.70;0.80;;;7.90;99.90;;;;;;5024997;28;20513;-35
2023/12/31 03:29:01;;;;;;;1.92;0.90;;;7.90;99.90;;;;;;5016526;28;20425;-35
2023/12/31 03:31:27;;;;;;;2.83;0.95;;;8.00;99.90;;;;;;5012605;28;20478;-35
2023/12/31 03:33:53;;;;;;;2.03;1.00;;;8.00;99.90;;;;;;5016295;28;20052;-35
2023/12/31 03:36:21;;;;;;;2.28;1.10;;;8.00;99.90;;;;;;5015169;28;20053;-33
2023/12/31 03:38:48;;;;;;;3.42;0.98;;;8.00;99.90;;;;;;5026573;28;20064;-34
2023/12/31 03:41:14;;;;;;;3.00;1.30;;;8.00;99.90;;;;;;5012720;28;20869;-36
2023/12/31 03:43:40;;;;;;;2.58;1.00;;;8.00;99.90;;;;;;5007051;28;20128;-34
2023/12/31 03:46:06;;;;;;;1.65;0.68;;;8.00;99.90;;;;;;5025639;28;20068;-34
2023/12/31 03:48:31;;;;;;;3.38;1.02;;;8.10;99.90;;;;;;5026349;28;20041;-34
2023/12/31 03:50:58;;;;;;;6.15;1.23;;;8.10;99.90;;;;;;5024961;28;20132;-34
2023/12/31 03:53:23;;;;;;;3.30;0.88;;;8.10;99.90;;;;;;5006943;28;20080;-35
2023/12/31 03:55:49;;;;;;;2.70;1.02;;;8.10;99.90;;;;;;5010624;28;20084;-34
2023/12/31 03:58:15;;;;;;;2.85;1.40;;;8.10;99.90;;;;;;5022108;28;20056;-34
2023/12/31 04:00:40;;;;;;;3.33;1.08;;;8.10;99.90;;;;;;5024929;28;20057;-34
2023/12/31 04:03:06;;;;;;;3.22;0.95;;;8.10;99.90;;;;;;5025985;28;20228;-34
2023/12/31 04:05:32;;;;;;;2.80;1.15;;;8.10;99.90;;;;;;5027755;28;20459;-35
2023/12/31 04:07:58;;;;;;;2.83;1.17;;;8.10;99.90;;;;;;5026557;28;20136;-34
2023/12/31 04:10:24;;;;;;;2.47;1.00;;;8.10;99.90;;;;;;5022749;28;20049;-34
2023/12/31 04:12:49;;;;;;;3.10;1.20;;;8.10;99.90;;;;;;5004451;28;20049;-35
2023/12/31 04:15:15;;;;;;;3.03;1.25;;;8.10;99.90;;;;;;5026779;28;20564;-38
2023/12/31 04:17:41;;;;;;;2.67;1.13;;;8.10;99.90;;;;;;5026002;28;20046;-35
2023/12/31 04:20:07;;;;;;;2.47;1.25;;;8.10;99.90;;;;;;5026933;28;20053;-34
2023/12/31 04:22:33;;;;;;;2.58;0.93;;;8.10;99.90;;;;;;5024382;28;20503;-35
2023/12/31 04:24:58;;;;;;;2.00;1.00;;;8.10;99.90;;;;;;5026033;28;20045;-34
2023/12/31 04:27:24;;;;;;;2.00;1.05;;;8.10;99.90;;;;;;5024485;28;20132;-35
2023/12/31 04:29:50;;;;;;;2.65;1.13;;;8.10;99.90;;;;;;5009677;28;20406;-34
2023/12/31 04:32:15;;;;;;;1.83;0.98;;;8.10;99.90;;;;;;5022233;28;20136;-34
2023/12/31 04:34:41;;;;;;;3.33;1.10;;;8.10;99.90;;;;;;5010404;28;20045;-34
2023/12/31 04:37:07;;;;;;;1.83;0.85;;;8.10;99.90;;;;;;5024059;28;20517;-34
2023/12/31 04:39:33;;;;;;;3.40;0.93;;;8.10;99.90;;;;;;5024720;28;20124;-34
2023/12/31 04:41:58;;;;;;;2.17;0.82;;;8.10;99.90;;;;;;5024942;28;20041;-39
2023/12/31 04:44:24;;;;;;;2.13;0.90;;;8.20;99.90;;;;;;5028914;28;20136;-34
2023/12/31 04:46:50;;;;;;;1.40;0.70;;;8.20;99.90;;;;;;5025303;28;20050;-34
2023/12/31 04:49:16;;;;;;;1.85;0.80;;;8.10;99.90;;;;;;5031429;28;20079;-35
2023/12/31 04:51:42;;;;;;;1.98;0.82;;;8.10;99.90;;;;;;5027649;28;20491;-35
2023/12/31 04:54:08;;;;;;;1.45;0.70;;;8.10;99.90;;;;;;5023834;28;20044;-35
2023/12/31 04:56:34;;;;;;;3.53;1.20;;;8.20;99.90;;;;;;5023612;28;20056;-35
2023/12/31 04:59:00;;;;;;;2.45;1.02;;;8.20;99.90;;;;;;5006391;28;20140;-35
2023/12/31 05:01:35;;;;;;;1.50;0.75;;;8.20;99.90;;;;;;5019884;28;20067;-35
2023/12/31 05:04:01;;;;;;;3.90;0.85;;;8.20;99.90;;;;;;5025229;28;20061;-35
2023/12/31 05:06:27;;;;;;;2.50;1.02;;;8.20;99.90;;;;;;5027972;28;20060;-35
2023/12/31 05:08:53;;;;;;;3.22;1.00;;;8.10;99.90;;;;;;5019188;28;20062;-35
2023/12/31 05:11:18;;;;;;;2.25;1.00;;;8.20;99.90;;;;;;5024237;28;20056;-33
2023/12/31 05:13:44;;;;;;;1.98;0.82;;;8.10;99.90;;;;;;5024932;28;20051;-34
2023/12/31 05:16:14;;;;;;;2.90;1.13;;;8.20;99.90;;;;;;5005879;28;20123;-33
2023/12/31 05:18:46;;;;;;;4.85;1.10;;;8.20;99.90;;;;;;5018957;28;20049;-34
2023/12/31 05:21:12;;;;;;;4.68;1.33;;;8.20;99.90;;;;;;5027647;28;20058;-34
2023/12/31 05:23:38;;;;;;;2.55;1.33;;;8.20;99.90;;;;;;5022658;28;20056;-38
2023/12/31 05:26:05;;;;;;;4.93;1.38;;;8.20;99.90;;;;;;5025986;28;20054;-34
2023/12/31 05:28:30;;;;;;;2.47;1.30;;;8.20;99.90;;;;;;5025677;28;20060;-34
2023/12/31 05:30:56;;;;;;;4.25;1.27;;;8.20;99.90;;;;;;5024504;28;20056;-34
2023/12/31 05:33:22;;;;;;;2.47;1.10;;;8.20;99.90;;;;;;5023271;28;20052;-34
2023/12/31 05:35:47;;;;;;;4.93;1.40;;;8.20;99.90;;;;;;5026996;28;20099;-34
2023/12/31 05:38:13;;;;;;;3.00;1.40;;;8.20;99.90;;;;;;5032647;28;20045;-34
2023/12/31 05:40:39;;;;;;;4.13;1.60;;;8.20;99.90;;;;;;5028709;28;20057;-35
2023/12/31 05:43:05;;;;;;;2.50;1.30;;;8.20;99.90;;;;;;5028376;28;20041;-34
2023/12/31 05:45:31;;;;;;;3.33;1.33;;;8.20;99.90;;;;;;5027023;28;20045;-34
2023/12/31 05:47:57;;;;;;;3.88;1.60;;;8.20;99.90;;;;;;5026750;28;20084;-34
2023/12/31 05:50:22;;;;;;;4.13;1.67;;;8.20;99.90;;;;;;5026386;28;20041;-34
2023/12/31 05:52:48;;;;;;;4.60;1.70;;;8.30;99.90;;;;;;5031574;28;20055;-34
2023/12/31 05:55:14;;;;;;;6.78;1.60;;;8.30;99.90;;;;;;5015238;28;20056;-34
2023/12/31 05:57:40;;;;;;;3.22;1.67;;;8.30;99.90;;;;;;5031971;28;20050;-34
2023/12/31 06:00:07;;;;;;;4.72;1.70;;;8.30;99.90;;;;;;5024789;28;20049;-34
2023/12/31 06:02:33;;;;;;;4.32;1.65;;;8.30;99.90;;;;;;5027763;28;20098;-42
2023/12/31 06:04:59;;;;;;;5.00;2.00;;;8.30;99.90;;;;;;5028182;28;20433;-34
2023/12/31 06:07:24;;;;;;;3.42;1.63;;;8.30;99.90;;;;;;5029777;28;20046;-34
2023/12/31 06:09:50;;;;;;;3.83;1.55;;;8.40;99.90;;;;;;5029579;28;20049;-34
2023/12/31 06:12:16;;;;;;;4.28;2.05;;;8.40;99.90;;;;;;5008673;28;20160;-34
2023/12/31 06:14:42;;;;;;;3.50;1.65;;;8.40;99.90;;;;;;5026528;28;20392;-34
2023/12/31 06:17:07;;;;;;;5.00;1.98;;;8.40;99.90;;;;;;5029927;28;20049;-34
2023/12/31 06:19:33;;;;;;;3.13;1.52;;;8.40;99.90;;;;;;5030251;28;20045;-34
2023/12/31 06:21:59;;;;;;;5.05;1.83;;;8.40;99.90;;;;;;5009124;28;20058;-34
2023/12/31 06:24:25;;;;;;;3.35;1.60;;;8.30;99.90;;;;;;5030798;28;20068;-34
2023/12/31 06:26:52;;;;;;;4.65;1.70;;;8.30;99.90;;;;;;5033959;28;20050;-34
2023/12/31 06:29:18;;;;;;;2.75;1.63;;;8.40;99.90;;;;;;5028625;28;20046;-34
2023/12/31 06:31:44;;;;;;;4.28;1.50;;;8.40;99.90;;;;;;5026768;28;20049;-34
2023/12/31 06:34:10;;;;;;;4.70;1.25;;;8.40;99.90;;;;;;5031076;28;20521;-34
2023/12/31 06:36:35;;;;;;;2.75;1.45;;;8.40;99.90;;;;;;5009344;28;20049;-34
2023/12/31 06:39:01;;;;;;;4.85;1.77;;;8.30;99.90;;;;;;5029042;28;20053;-34
2023/12/31 06:41:27;;;;;;;2.53;1.25;;;8.40;99.90;;;;;;5022796;28;20513;-35
2023/12/31 06:43:53;;;;;;;3.47;1.15;;;8.40;99.90;;;;;;5026804;28;20057;-34
2023/12/31 06:46:18;;;;;;;2.90;1.23;;;8.40;99.90;;;;;;5029617;28;20045;-34
2023/12/31 06:48:44;;;;;;;3.17;1.50;;;8.40;99.90;;;;;;5028865;28;20049;-34
2023/12/31 06:51:10;;;;;;;5.72;1.40;;;8.40;99.90;;;;;;5028278;28;20506;-34
2023/12/31 06:53:36;;;;;;;2.88;1.00;;;8.40;99.90;;;;;;5024814;28;20061;-35
2023/12/31 06:56:05;;;;;;;2.15;1.17;;;8.40;99.90;;;;;;5032804;28;20102;-34
2023/12/31 06:58:31;;;;;;;2.00;1.05;;;8.50;99.90;;;;;;5006049;28;20509;-34
2023/12/31 07:00:57;;;;;;;3.15;1.30;;;8.50;99.90;;;;;;5026961;28;20045;-34
2023/12/31 07:03:22;;;;;;;3.65;1.08;;;8.50;99.90;;;;;;5020113;28;20045;-34
2023/12/31 07:05:48;;;;;;;3.15;1.17;;;8.60;99.90;;;;;;5029336;28;20061;-34
2023/12/31 07:08:14;;;;;;;3.50;1.30;;;8.60;99.90;;;;;;5025361;28;20090;-34
2023/12/31 07:10:40;;;;;;;2.60;1.20;;;8.60;99.90;;;;;;5028864;28;20092;-34
2023/12/31 07:13:05;;;;;;;2.08;1.10;;;8.60;99.90;;;;;;5028005;28;20064;-34
2023/12/31 07:15:31;;;;;;;2.95;1.20;;;8.70;99.90;;;;;;5028487;28;20049;-34
2023/12/31 07:17:57;;;;;;;3.28;1.20;;;8.70;99.90;;;;;;5024999;28;20057;-34
2023/12/31 07:20:23;;;;;;;4.70;1.65;;;8.70;99.90;;;;;;5025406;28;20053;-34
2023/12/31 07:22:48;;;;;;;2.50;1.40;;;8.70;99.90;;;;;;5023843;28;20468;-34
2023/12/31 07:25:14;;;;;;;2.60;1.05;;;8.70;99.90;;;;;;5026629;28;20053;-35
2023/12/31 07:27:40;;;;;;;3.13;1.17;;;8.70;99.90;;;;;;5024628;28;20099;-34
2023/12/31 07:30:06;;;;;;;2.33;1.20;;;8.70;99.90;;;;;;5026848;28;20127;-39
2023/12/31 07:32:32;;;;;;;2.72;1.38;;;8.70;99.90;;;;;;5023014;28;20138;-34
2023/12/31 07:34:57;;;;;;;2.22;1.25;;;8.70;99.90;;;;;;5028904;28;20057;-35
2023/12/31 07:37:23;;;;;;;4.07;1.50;;;8.70;99.90;;;;;;5027158;28;20492;-34
2023/12/31 07:39:49;;;;;;;2.80;1.58;;;8.70;99.90;;;;;;5006905;28;20111;-33
2023/12/31 07:42:15;;;;;;;4.55;1.50;;;8.70;99.90;;;;;;5008274;28;20124;-34
2023/12/31 07:44:40;;;;;;;3.70;1.48;;;8.60;99.90;;;;;;5025904;28;20045;-35
2023/12/31 07:47:06;;;;;;;4.13;1.75;;;8.70;99.90;;;;;;5026605;28;20060;-35
2023/12/31 07:49:33;;;;;;;4.30;1.42;;;8.60;99.90;;;;;;5024757;28;20757;-34
2023/12/31 07:51:59;;;;;;;4.70;1.60;;;8.60;99.90;;;;;;5023409;28;20053;-35
2023/12/31 07:54:25;;;;;;;2.97;1.48;;;8.60;99.90;;;;;;5006553;28;20049;-35
2023/12/31 07:56:52;;;;;;;3.85;1.70;;;8.60;99.90;;;;;;5022634;28;20041;-35
2023/12/31 07:59:18;;;;;;;2.75;1.20;;;8.60;99.90;;;;;;5024956;28;20053;-35
2023/12/31 08:01:44;;;;;;;2.58;1.38;;;8.60;99.90;;;;;;5022361;28;20141;-35
2023/12/31 08:04:09;;;;;;;3.22;1.45;;;8.60;99.90;;;;;;5024806;28;20120;-33
2023/12/31 08:06:36;;;;;;;2.17;1.30;;;8.60;99.90;;;;;;5026460;28;20053;-34
2023/12/31 08:09:02;;;;;;;3.88;1.65;;;8.60;99.90;;;;;;5026069;28;20049;-35
2023/12/31 08:11:28;;;;;;;2.97;1.35;;;8.70;99.90;;;;;;5025477;28;20103;-36
2023/12/31 08:13:54;;;;;;;2.60;1.40;;;8.70;99.90;;;;;;5009268;28;20532;-34
2023/12/31 08:16:20;;;;;;;2.97;1.33;;;8.70;99.90;;;;;;5025886;28;20049;-34
2023/12/31 08:18:46;;;;;;;4.03;2.05;;;8.70;99.90;;;;;;5025041;28;20107;-34
2023/12/31 08:21:12;;;;;;;4.47;1.50;;;8.70;99.90;;;;;;5023538;28;20049;-34
2023/12/31 08:23:37;;;;;;;2.78;1.45;;;8.70;99.90;;;;;;5022263;28;20403;-35
2023/12/31 08:26:03;;;;;;;3.10;1.50;;;8.70;99.90;;;;;;5027118;28;20136;-35
2023/12/31 08:28:30;;;;;;;3.20;1.60;;;8.70;99.90;;;;;;5025307;28;20483;-34
2023/12/31 08:30:56;;;;;;;2.53;1.60;;;8.80;99.90;;;;;;5023896;28;20083;-35
2023/12/31 08:33:21;;;;;;;3.42;1.70;;;8.80;99.90;;;;;;5009654;28;21202;-40
2023/12/31 08:35:48;;;;;;;3.58;1.40;;;8.80;99.90;;;;;;5023277;28;20962;-35
2023/12/31 08:38:14;;;;;;;2.42;1.45;;;8.90;99.90;;;;;;5017289;28;20529;-34
2023/12/31 08:40:39;;;;;;;3.20;1.65;;;8.90;99.90;;;;;;5015388;28;20053;-34
2023/12/31 08:43:05;;;;;;;3.13;1.55;;;8.90;99.90;;;;;;5021267;28;20116;-35
2023/12/31 08:45:32;;;;;;;2.50;1.20;;;8.90;99.90;;;;;;5022036;28;20461;-35
2023/12/31 08:47:58;;;;;;;3.03;1.50;;;8.90;99.90;;;;;;5023017;28;20053;-35
2023/12/31 08:50:24;;;;;;;2.42;1.42;;;8.90;99.90;;;;;;5022635;28;20068;-34
2023/12/31 08:52:50;;;;;;;2.83;1.40;;;8.90;99.90;;;;;;5024602;28;20064;-36
2023/12/31 08:55:16;;;;;;;4.65;1.63;;;8.90;99.90;;;;;;5026566;28;20045;-34
2023/12/31 08:57:47;;;;;;;3.95;1.83;;;8.90;99.90;;;;;;5028791;28;20135;-36
2023/12/31 09:00:13;;;;;;;3.00;1.60;;;8.90;99.90;;;;;;5013697;28;20108;-34
2023/12/31 09:02:39;;;;;;;3.55;1.77;;;9.00;99.90;;;;;;5017924;28;20057;-35
2023/12/31 09:05:05;;;;;;;4.65;1.70;;;8.90;99.90;;;;;;5023548;28;20057;-37
2023/12/31 09:07:34;;;;;;;5.18;1.52;;;9.00;99.90;;;;;;5021320;28;20095;-35
2023/12/31 09:10:02;;;;;;;3.30;1.40;;;9.00;99.90;;;;;;5018295;28;20049;-34
2023/12/31 09:12:28;;;;;;;4.57;1.95;;;9.00;99.90;;;;;;5009719;28;20399;-35
2023/12/31 09:14:54;;;;;;;5.63;2.00;;;9.00;99.90;;;;;;5016020;28;20605;-34
2023/12/31 09:17:20;;;;;;;3.47;2.28;;;9.00;99.90;;;;;;5016744;28;20046;-35
2023/12/31 09:19:45;;;;;;;4.70;2.22;;;9.10;99.90;;;;;;5025320;28;20125;-34
2023/12/31 09:22:11;;;;;;;5.15;2.28;;;9.10;99.90;;;;;;5022690;28;20056;-34
2023/12/31 09:24:37;;;;;;;5.85;3.72;;;9.10;99.90;;;;;;5023044;28;20053;-35
2023/12/31 09:27:03;;;;;;;14.57;9.68;;;9.10;99.90;;;;;;5020413;28;20115;-34
2023/12/31 09:29:30;;;;;;;12.95;8.27;;;9.10;99.90;;;;;;5003163;28;20042;-35
2023/12/31 09:31:56;;;;;;;9.50;4.70;;;9.10;99.90;;;;;;5016810;28;20414;-34
2023/12/31 09:34:21;;;;;;;12.52;8.50;;;9.10;99.90;;;;;;5021829;28;20049;-35
2023/12/31 09:36:48;;;;;;;20.90;14.80;;;9.10;99.90;;;;;;5021726;28;20062;-34
2023/12/31 09:39:13;;;;;;;18.02;12.63;;;9.10;99.90;;;;;;5021214;28;20148;-35
2023/12/31 09:41:39;;;;;;;8.75;5.22;;;9.10;99.90;;;;;;4995601;28;20107;-35
2023/12/31 09:44:06;;;;;;;11.65;7.43;;;9.10;99.90;;;;;;5012777;28;20060;-35
2023/12/31 09:46:37;;;;;;;5.78;3.95;;;9.10;99.90;;;;;;5020192;28;20395;-35
2023/12/31 09:49:03;;;;;;;7.05;5.15;;;9.20;99.90;;;;;;5024180;28;20053;-35
2023/12/31 09:51:30;;;;;;;6.20;4.43;;;9.20;99.90;;;;;;5015336;28;20057;-35
2023/12/31 09:53:56;;;;;;;5.13;2.30;;;9.20;99.90;;;;;;5020834;28;20095;-35
2023/12/31 09:56:23;;;;;;;4.72;2.90;;;9.20;99.90;;;;;;5019496;28;20415;-35
2023/12/31 09:58:51;;;;;;;5.97;3.03;;;9.30;99.90;;;;;;5020783;28;20494;-33
2023/12/31 10:01:17;;;;;;;3.63;2.20;;;9.30;99.90;;;;;;5021063;28;20105;-35
2023/12/31 10:03:45;;;;;;;8.20;5.60;;;9.40;99.90;;;;;;5021370;28;20144;-35
2023/12/31 10:06:11;;;;;;;5.85;3.28;;;9.40;99.90;;;;;;5020927;28;20136;-34
2023/12/31 10:08:41;;;;;;;4.82;3.10;;;9.50;99.90;;;;;;5020497;28;20053;-35
2023/12/31 10:11:07;;;;;;;5.40;1.88;;;9.50;99.90;;;;;;5016746;28;20058;-35
2023/12/31 10:13:33;;;;;;;11.93;7.07;;;9.60;99.90;;;;;;5022340;28;20382;-35
2023/12/31 10:15:59;;;;;;;9.73;5.30;;;9.60;99.90;;;;;;5020287;28;20064;-36
2023/12/31 10:18:25;;;;;;;3.63;2.20;;;9.60;99.90;;;;;;5022382;28;20134;-36
2023/12/31 10:20:52;;;;;;;15.55;7.95;;;9.70;99.90;;;;;;5005701;28;20057;-35
2023/12/31 10:23:18;;;;;;;3.70;1.80;;;9.70;99.90;;;;;;5003068;28;20053;-35
2023/12/31 10:25:44;;;;;;;3.08;1.25;;;9.70;99.90;;;;;;5026647;28;20127;-35
2023/12/31 10:28:10;;;;;;;3.10;1.75;;;9.70;99.90;;;;;;5008690;28;20053;-34
2023/12/31 10:30:39;;;;;;;2.92;1.60;;;9.80;99.90;;;;;;5015702;28;20076;-34
2023/12/31 10:33:10;;;;;;;2.67;1.27;;;9.80;99.90;;;;;;5014568;28;20060;-35
2023/12/31 10:35:37;;;;;;;3.67;1.55;;;9.80;99.90;;;;;;5021832;28;20103;-34
2023/12/31 10:38:06;;;;;;;2.47;1.13;;;9.80;99.90;;;;;;5022335;28;20041;-35
2023/12/31 10:40:33;;;;;;;3.33;1.70;;;9.80;99.90;;;;;;5016481;28;20045;-34
2023/12/31 10:42:59;;;;;;;4.40;1.88;;;9.80;99.90;;;;;;5022158;28;20060;-35
2023/12/31 10:45:26;;;;;;;3.10;1.33;;;9.70;99.90;;;;;;5017025;28;21794;-35
2023/12/31 10:47:57;;;;;;;2.38;1.10;;;9.70;99.90;;;;;;5023207;28;20041;-34
2023/12/31 10:50:24;;;;;;;2.67;1.15;;;9.70;99.90;;;;;;5024882;28;20434;-34
2023/12/31 10:52:51;;;;;;;2.63;1.70;;;9.70;99.90;;;;;;5019520;28;20044;-34
2023/12/31 10:55:18;;;;;;;2.85;1.52;;;9.60;99.90;;;;;;5010545;28;20046;-36
2023/12/31 10:57:44;;;;;;;2.70;1.10;;;9.50;99.90;;;;;;5028617;28;20059;-35
2023/12/31 11:00:13;;;;;;;3.05;1.58;;;9.30;99.90;;;;;;5025461;28;20049;-35
2023/12/31 11:02:41;;;;;;;1.38;0.60;;;9.10;99.90;;;;;;5020886;28;20042;-35
2023/12/31 11:05:08;;;;;;;0.80;0.40;;;8.80;99.90;;;;;;5014582;28;20148;-36
2023/12/31 11:07:35;;;;;;;0.70;0.20;;;8.50;99.90;;;;;;5010536;28;20041;-35
2023/12/31 11:10:02;;;;;;;1.52;0.70;;;8.30;99.90;;;;;;5025417;28;20179;-35
2023/12/31 11:12:28;;;;;;;2.40;0.90;;;8.20;99.90;;;;;;5026172;28;20048;-35
2023/12/31 11:14:59;;;;;;;1.45;0.50;;;8.10;99.90;;;;;;5012544;28;20045;-35
2023/12/31 11:18:00;;;;;;;1.15;0.40;;;8.00;99.90;;;;;;5017394;28;20073;-35
2023/12/31 11:20:31;;;;;;;2.28;0.60;;;7.90;99.90;;;;;;5009136;28;21567;-35
2023/12/31 11:23:09;;;;;;;1.00;0.50;;;7.90;99.90;;;;;;5020222;28;20484;-35
2023/12/31 11:25:37;;;;;;;1.13;0.40;;;7.90;99.90;;;;;;5000669;28;20062;-35
2023/12/31 11:28:06;;;;;;;1.33;0.40;;;7.90;99.90;;;;;;5024886;28;20049;-35
2023/12/31 11:30:51;;;;;;;1.95;0.57;;;7.90;99.90;;;;;;5007824;28;20049;-34
2023/12/31 11:33:24;;;;;;;1.00;0.50;;;7.90;99.90;;;;;;5005571;28;20415;-34
2023/12/31 11:35:56;;;;;;;1.20;0.50;;;8.00;99.90;;;;;;5018350;28;20476;-34
2023/12/31 11:38:21;;;;;;;1.98;0.57;;;8.10;99.90;;;;;;5016885;28;20053;-34
2023/12/31 11:40:48;;;;;;;1.27;0.50;;;8.10;99.90;;;;;;5023588;28;20067;-36
2023/12/31 11:43:16;;;;;;;1.77;0.70;;;8.20;99.90;;;;;;5013832;28;20440;-34
2023/12/31 11:45:52;;;;;;;3.25;1.20;;;8.30;99.90;;;;;;5013027;28;20062;-34
2023/12/31 11:48:25;;;;;;;2.63;1.35;;;8.40;99.90;;;;;;5002296;28;20101;-36
2023/12/31 11:51:01;;;;;;;2.10;0.80;;;8.50;99.90;;;;;;4998618;28;20051;-35
2023/12/31 11:53:48;;;;;;;1.80;0.50;;;8.60;99.90;;;;;;5025265;28;20049;-35
2023/12/31 11:56:14;;;;;;;3.50;0.57;;;8.80;99.90;;;;;;5028220;28;20132;-34
2023/12/31 11:58:42;;;;;;;2.55;0.93;;;8.90;99.90;;;;;;5028472;28;20139;-34
2023/12/31 12:01:09;;;;;;;2.63;0.68;;;9.30;99.90;;;;;;5026067;28;20049;-34
2023/12/31 12:03:35;;;;;;;1.35;0.52;;;9.60;99.90;;;;;;5029361;28;20061;-35
2023/12/31 12:06:01;;;;;;;2.17;0.57;;;9.60;99.90;;;;;;5028841;28;20106;-34
2023/12/31 12:08:27;;;;;;;3.80;0.80;;;9.60;99.90;;;;;;5004951;28;20133;-34
2023/12/31 12:10:53;;;;;;;3.40;0.63;;;9.90;99.90;;;;;;5024963;28;20453;-35
2023/12/31 12:13:18;;;;;;;1.95;0.90;;;10.40;99.90;;;;;;5023301;28;20502;-35
2023/12/31 12:15:44;;;;;;;3.33;1.13;;;10.70;99.90;;;;;;5024612;28;20053;-35
2023/12/31 12:18:26;;;;;;;1.60;0.60;;;11.00;99.90;;;;;;5024591;28;20060;-39
2023/12/31 12:20:55;;;;;;;2.35;0.70;;;10.70;99.90;;;;;;5021322;28;20573;-35
2023/12/31 12:23:23;;;;;;;1.90;0.55;;;10.40;99.90;;;;;;5026742;28;20096;-36
2023/12/31 12:25:49;;;;;;;2.85;0.60;;;10.10;99.90;;;;;;5025945;28;20061;-34
2023/12/31 12:28:15;;;;;;;1.45;0.60;;;9.80;99.90;;;;;;5026605;28;20071;-35
2023/12/31 12:30:41;;;;;;;1.45;0.50;;;9.70;99.90;;;;;;5021356;28;20191;-35
2023/12/31 12:33:08;;;;;;;2.22;0.68;;;9.50;99.90;;;;;;5025085;28;20115;-35
2023/12/31 12:35:39;;;;;;;2.35;0.70;;;9.40;99.90;;;;;;5027774;28;20390;-35
2023/12/31 12:38:06;;;;;;;3.20;1.45;;;9.30;99.90;;;;;;5021476;28;20465;-34
2023/12/31 12:40:32;;;;;;;1.83;0.52;;;9.20;99.90;;;;;;5020975;28;20045;-34
2023/12/31 12:43:01;;;;;;;1.00;0.40;;;9.10;99.90;;;;;;5024781;28;20068;-34
2023/12/31 12:45:27;;;;;;;1.48;0.20;;;8.90;99.90;;;;;;5007188;28;20049;-34
2023/12/31 12:47:52;;;;;;;4.50;0.30;;;8.80;99.90;;;;;;5022377;28;20045;-34
2023/12/31 12:50:18;;;;;;;1.50;0.30;;;8.60;99.90;;;;;;5024278;28;20487;-34
2023/12/31 12:52:44;;;;;;;3.20;0.35;;;8.50;99.90;;;;;;5021482;28;20172;-34
2023/12/31 12:55:09;;;;;;;1.88;0.25;;;8.40;99.90;;;;;;5021460;28;20084;-34